Time,TemperatureF,DewpointF,PressureIn,WindDirection,WindDirectionDegrees,WindSpeedMPH,WindSpeedGustMPH,Humidity,HourlyPrecipIn,Conditions,Clouds,dailyrainin,SoftwareType,DateUTC
2013-08-26 00:00:00,62.7,58.8,30.33,West,270,0.0,0.0,87,0.00,,OVC,0.00,VWS V14.01,2013-08-26 04:00:00,
2013-08-26 01:00:00,61.8,58.2,30.32,West,270,0.0,0.0,88,0.00,,OVC,0.00,VWS V14.01,2013-08-26 05:00:00,
2013-08-26 02:00:00,60.4,57.5,30.31,West,270,0.0,0.0,90,0.00,,OVC,0.00,VWS V14.01,2013-08-26 06:00:00,
2013-08-26 03:00:00,60.5,57.9,30.29,West,270,0.0,0.0,91,0.00,,OVC,0.00,VWS V14.01,2013-08-26 07:00:00,
2013-08-26 04:00:00,60.3,57.4,30.28,West,270,0.0,0.0,90,0.00,,OVC,0.00,VWS V14.01,2013-08-26 08:00:00,
2013-08-26 05:00:00,60.0,57.4,30.27,West,270,0.0,0.0,91,0.00,,OVC,0.00,VWS V14.01,2013-08-26 09:00:00,
2013-08-26 06:00:00,59.6,56.0,30.26,West,270,0.0,0.0,88,0.00,,OVC,0.00,VWS V14.01,2013-08-26 10:00:00,
2013-08-26 07:00:00,59.1,55.5,30.27,West,270,0.0,0.0,88,0.00,,OVC,0.00,VWS V14.01,2013-08-26 11:00:00,
2013-08-26 08:00:00,59.4,57.1,30.28,West,270,0.0,0.0,92,0.00,,OVC,0.00,VWS V14.01,2013-08-26 12:00:00,
2013-08-26 09:00:00,60.7,58.4,30.28,West,270,0.0,0.0,92,0.00,,OVC,0.00,VWS V14.01,2013-08-26 13:00:00,
2013-08-26 10:00:00,62.7,58.8,30.29,WSW,248,0.0,2.0,87,0.00,,OVC,0.00,VWS V14.01,2013-08-26 14:00:00,
2013-08-26 11:00:00,66.1,61.5,30.29,WSW,248,0.0,5.0,85,0.00,,OVC,0.00,VWS V14.01,2013-08-26 15:00:00,
2013-08-26 12:00:00,68.9,62.8,30.28,WSW,248,1.0,7.0,81,0.00,,OVC,0.00,VWS V14.01,2013-08-26 16:00:00,
2013-08-26 13:00:00,71.7,64.5,30.26,WSW,248,0.0,4.0,78,0.00,,OVC,0.00,VWS V14.01,2013-08-26 17:00:00,
2013-08-26 14:00:00,74.6,62.9,30.24,WSW,248,0.0,4.0,67,0.00,,OVC,0.00,VWS V14.01,2013-08-26 18:00:00,
2013-08-26 15:00:00,77.4,66.9,30.21,WSW,248,0.0,3.0,70,0.00,,OVC,0.00,VWS V14.01,2013-08-26 19:00:00,
2013-08-26 16:00:00,76.6,67.3,30.19,WSW,248,0.0,4.0,73,0.00,,OVC,0.00,VWS V14.01,2013-08-26 20:00:00,
2013-08-26 17:00:00,78.1,66.7,30.17,WSW,248,0.0,6.0,68,0.00,,OVC,0.00,VWS V14.01,2013-08-26 21:00:00,
2013-08-26 18:00:00,78.7,67.3,30.16,West,270,0.0,5.0,68,0.00,,OVC,0.00,VWS V14.01,2013-08-26 22:00:00,
2013-08-26 19:00:00,76.3,68.6,30.14,SW,225,0.0,4.0,77,0.00,,OVC,0.00,VWS V14.01,2013-08-26 23:00:00,
2013-08-26 20:00:00,71.5,65.7,30.13,WSW,248,0.0,1.0,82,0.00,,OVC,0.00,VWS V14.01,2013-08-27 00:00:00,
2013-08-26 21:00:00,67.6,64.2,30.13,WSW,248,0.0,0.0,89,0.00,,OVC,0.00,VWS V14.01,2013-08-27 01:00:00,
2013-08-26 22:00:00,66.4,64.0,30.14,WSW,248,0.0,0.0,92,0.00,,OVC,0.00,VWS V14.01,2013-08-27 02:00:00,
2013-08-26 23:00:00,65.6,63.2,30.14,WSW,248,0.0,0.0,92,0.00,,OVC,0.00,VWS V14.01,2013-08-27 03:00:00,